Casterton, Victoria

6:48 PM AEDT on February 06, 2016 (GMT +1100)
KELPIE COUNTRY | | Change Station
CLOSE
Current Station
Personal Weather Station
Location: Casterton, VICTORIA
Elevation: 249 ft
Nearby Weather Stations

Elev 249 ft 37.59 °S, 141.41 °E | Updated 0 second ago

Clear
Clear
89.1 °F
Feels Like 86 °F
N
11.3
Wind Variable Wind from SSW
Gusts 13.6 mph

Today
High -- | Low -- °F
--% Chance of Precip.
Yesterday
High -- | Low -- °F
Precip. -- in
Pressure 29.92 in
Visibility 6.2 miles
Clouds
Heat Index 86 °F
Dew Point 49 °F
Humidity 25%
Rainfall in
Snow Depth Not available.
6:53 AM 8:42 PM
Waning Crescent, 7% visible
METAR YMTG 060700Z AUTO 19012KT 9999 // NCD 27/09 Q1013
Pressure 29.92 in
Visibility 6.2 miles
Clouds
Heat Index 86 °F
Dew Point 49 °F
Humidity 25%
Rainfall in
Snow Depth Not available.
6:53 AM 8:42 PM
Waning Crescent, 7% visible
METAR YMTG 060700Z AUTO 19012KT 9999 // NCD 27/09 Q1013

10-Day Weather Forecast

Almanac

Astronomy

Feb. 06, 2016 Rise Set
Actual Time
Civil Twilight
Nautical Twilight
Astronomical Twilight
Moon
Length of Visible Light
Length of Day
Tomorrow will be .
, % of the Moon is Illuminated

Today's Extremes

Country Highs Country Lows

Community

WunderPhotos

Upload Photos

1,890,933 photos uploaded!

WunderBlog® & News

Nearby

Air Quality

  Air Quality AQ Index Pollutant
Not available.

Snow Depth

Station Depth Elevation

Earthquake Activity

City Distance Mag. Time & Date
Minimum magnitude displayed is 2.5.

Coastal Water Temperatures

Place Temperature

Stations

Nearby Weather Stations

Station Location Temp. Windchill Dew Point Humidity Wind Precip. Elev Updated Type